Time;durP1;ratioP1;P1;durP2;ratioP2;P2;SDS_P1;SDS_P2;PMS_P1;PMS_P2;Temp;Humidity;BMP_temperature;BMP_pressure;BME280_temperature;BME280_humidity;BME280_pressure;Samples;Min_cycle;Max_cycle;Signal;HPM_P1;HPM_P2
2021/08/04 00:02:46;;;;;;;10.95;4.03;;;24.20;83.50;;;;;;4972286;28;20550;-67
2021/08/04 00:05:50;;;;;;;11.85;3.83;;;24.20;83.60;;;;;;4973399;28;20046;-68
2021/08/04 00:08:57;;;;;;;12.73;4.18;;;24.30;83.20;;;;;;4973264;28;20042;-68
2021/08/04 00:12:02;;;;;;;14.05;4.30;;;24.30;82.30;;;;;;4972942;28;20046;-67
2021/08/04 00:15:07;;;;;;;14.32;4.00;;;24.40;81.50;;;;;;4973128;28;20058;-67
2021/08/04 00:18:11;;;;;;;18.55;3.78;;;24.40;81.50;;;;;;4973130;28;20107;-67
2021/08/04 00:21:15;;;;;;;12.25;3.85;;;24.20;81.40;;;;;;4972904;28;20406;-68
2021/08/04 00:24:20;;;;;;;14.25;4.10;;;23.90;81.90;;;;;;4973026;28;20432;-67
2021/08/04 00:27:26;;;;;;;11.77;3.70;;;23.90;81.70;;;;;;4973092;28;20046;-68
2021/08/04 00:30:31;;;;;;;11.63;3.80;;;24.00;81.50;;;;;;4972710;28;20045;-67
2021/08/04 00:33:35;;;;;;;9.60;3.58;;;24.10;81.70;;;;;;4972664;28;20046;-67
2021/08/04 00:36:39;;;;;;;14.10;3.95;;;24.20;82.80;;;;;;4961092;28;20053;-68
2021/08/04 00:39:43;;;;;;;13.32;3.92;;;24.20;83.40;;;;;;4971820;28;20038;-67
2021/08/04 00:42:47;;;;;;;14.60;4.15;;;24.20;84.10;;;;;;4971923;28;20042;-68
2021/08/04 00:45:52;;;;;;;11.68;3.63;;;24.10;84.50;;;;;;4960940;28;20038;-67
2021/08/04 00:48:56;;;;;;;12.02;3.88;;;24.10;85.10;;;;;;4960693;28;20046;-67
2021/08/04 00:52:04;;;;;;;13.60;3.95;;;24.10;85.70;;;;;;4971719;28;20119;-67
2021/08/04 00:55:09;;;;;;;12.35;3.95;;;24.10;85.60;;;;;;4972465;28;20078;-67
2021/08/04 00:58:14;;;;;;;17.17;5.10;;;24.00;85.80;;;;;;4960376;28;20041;-67
2021/08/04 01:01:22;;;;;;;15.23;4.13;;;24.00;85.50;;;;;;4972222;28;20071;-67
2021/08/04 01:04:36;;;;;;;11.88;3.97;;;24.00;85.30;;;;;;4941371;29;20498;-67
2021/08/04 01:07:46;;;;;;;14.18;3.17;;;23.70;83.70;;;;;;4941055;29;20050;-67
2021/08/04 01:10:53;;;;;;;10.93;3.67;;;23.40;83.60;;;;;;4941065;29;20042;-67
2021/08/04 01:14:02;;;;;;;10.27;3.63;;;23.20;83.70;;;;;;4940987;29;20407;-67
2021/08/04 01:17:12;;;;;;;10.32;3.05;;;23.20;84.00;;;;;;4941148;29;20037;-67
2021/08/04 01:20:23;;;;;;;10.18;3.50;;;23.20;84.20;;;;;;4940909;29;20042;-67
2021/08/04 01:23:47;;;;;;;11.82;3.90;;;23.30;84.30;;;;;;4930226;29;20050;-67
2021/08/04 01:26:52;;;;;;;13.23;3.72;;;23.20;84.80;;;;;;4952814;29;20514;-67
2021/08/04 01:29:58;;;;;;;11.35;3.97;;;23.20;85.00;;;;;;4941024;29;20043;-67
2021/08/04 01:33:04;;;;;;;9.73;3.53;;;23.10;84.70;;;;;;4953001;29;20042;-67
2021/08/04 01:36:09;;;;;;;12.13;4.60;;;23.00;85.30;;;;;;4952718;29;20054;-67
2021/08/04 01:39:15;;;;;;;10.68;3.28;;;23.00;85.30;;;;;;4941146;29;20050;-67
2021/08/04 01:42:21;;;;;;;14.10;3.83;;;22.80;86.20;;;;;;4940875;29;20069;-67
2021/08/04 01:45:25;;;;;;;17.98;4.63;;;22.80;86.80;;;;;;4951868;29;20082;-68
2021/08/04 01:48:30;;;;;;;9.77;3.05;;;22.90;86.70;;;;;;4940835;29;20054;-67
2021/08/04 01:51:34;;;;;;;23.67;3.90;;;23.00;86.20;;;;;;4952526;29;20047;-67
2021/08/04 01:54:40;;;;;;;8.77;3.28;;;23.00;86.40;;;;;;4940578;29;20062;-67
2021/08/04 01:57:45;;;;;;;10.90;3.50;;;23.00;85.90;;;;;;4940844;29;20043;-67
2021/08/04 02:00:49;;;;;;;12.40;4.50;;;23.10;85.90;;;;;;4940872;29;20050;-67
2021/08/04 02:03:53;;;;;;;10.30;3.15;;;23.10;85.40;;;;;;4971789;28;20058;-67
2021/08/04 02:07:04;;;;;;;15.82;4.28;;;22.90;85.40;;;;;;4970911;28;20050;-67
2021/08/04 02:10:14;;;;;;;16.52;3.60;;;22.90;85.40;;;;;;4959877;28;20045;-67
2021/08/04 02:13:25;;;;;;;16.27;4.38;;;23.00;85.10;;;;;;4970858;28;20119;-67
2021/08/04 02:16:45;;;;;;;10.50;3.80;;;23.00;84.70;;;;;;4970812;28;20057;-67
2021/08/04 02:20:12;;;;;;;11.15;3.30;;;23.10;84.70;;;;;;4971000;28;20403;-67
2021/08/04 02:23:22;;;;;;;13.55;3.83;;;23.00;84.40;;;;;;4971630;28;20072;-67
2021/08/04 02:26:28;;;;;;;10.40;3.17;;;23.00;84.30;;;;;;4971863;28;20046;-67
2021/08/04 02:29:36;;;;;;;10.15;3.53;;;23.00;84.10;;;;;;4970994;28;20050;-67
2021/08/04 02:32:41;;;;;;;13.40;3.50;;;23.10;83.50;;;;;;4981807;28;20041;-67
2021/08/04 02:35:47;;;;;;;18.92;3.60;;;23.00;83.50;;;;;;4974974;28;20066;-67
2021/08/04 02:38:51;;;;;;;10.80;3.65;;;22.90;83.80;;;;;;4975215;28;20057;-68
2021/08/04 02:41:59;;;;;;;10.27;3.72;;;22.90;84.10;;;;;;4974030;28;20509;-67
2021/08/04 02:45:04;;;;;;;11.50;3.30;;;22.90;83.70;;;;;;4974778;28;20409;-67
2021/08/04 02:48:15;;;;;;;14.80;3.85;;;22.90;83.90;;;;;;4974843;28;20610;-67
2021/08/04 02:51:23;;;;;;;9.55;3.30;;;22.90;83.40;;;;;;4973819;28;20050;-67
2021/08/04 02:54:26;;;;;;;12.02;3.15;;;22.90;83.90;;;;;;4973731;28;20517;-67
2021/08/04 02:57:31;;;;;;;10.32;3.40;;;23.00;82.50;;;;;;4974241;28;20054;-67
2021/08/04 03:00:34;;;;;;;12.35;3.88;;;23.00;82.20;;;;;;4974290;28;20042;-68
2021/08/04 03:03:38;;;;;;;20.65;3.47;;;22.80;81.60;;;;;;4974249;28;20506;-67
2021/08/04 03:06:42;;;;;;;11.93;3.33;;;22.80;81.10;;;;;;4962496;28;20053;-67
2021/08/04 03:09:46;;;;;;;12.88;3.38;;;22.80;81.20;;;;;;4974275;28;20042;-68
2021/08/04 03:12:51;;;;;;;8.63;2.70;;;22.80;80.90;;;;;;4962513;28;20049;-67
2021/08/04 03:15:56;;;;;;;10.00;3.53;;;22.80;81.00;;;;;;4974153;28;20513;-67
2021/08/04 03:19:00;;;;;;;8.73;3.33;;;22.80;81.30;;;;;;4974113;28;20038;-67
2021/08/04 03:22:04;;;;;;;17.42;3.25;;;22.80;80.80;;;;;;4974207;28;20046;-67
2021/08/04 03:25:09;;;;;;;12.98;3.38;;;22.90;81.00;;;;;;4973946;28;20045;-67
2021/08/04 03:28:14;;;;;;;13.82;3.75;;;22.90;81.10;;;;;;4974002;28;20045;-67
2021/08/04 03:31:18;;;;;;;21.45;3.42;;;22.80;80.90;;;;;;4973736;28;20042;-67
2021/08/04 03:34:21;;;;;;;11.48;3.20;;;22.80;80.80;;;;;;4973862;28;20058;-67
2021/08/04 03:37:25;;;;;;;13.07;3.33;;;22.80;81.30;;;;;;4974325;28;20038;-67
2021/08/04 03:40:30;;;;;;;6.90;2.83;;;22.80;81.80;;;;;;4973760;28;20049;-67
2021/08/04 03:43:33;;;;;;;18.67;4.05;;;22.80;82.20;;;;;;4973763;28;20042;-68
2021/08/04 03:46:38;;;;;;;15.65;3.60;;;22.80;82.30;;;;;;4973647;28;20038;-67
2021/08/04 03:49:44;;;;;;;13.43;4.25;;;22.80;83.00;;;;;;4973626;28;20053;-68
2021/08/04 03:52:48;;;;;;;16.80;4.00;;;22.80;83.10;;;;;;4973621;28;20042;-68
2021/08/04 03:55:52;;;;;;;12.68;3.60;;;22.70;83.10;;;;;;4973811;28;20066;-67
2021/08/04 03:58:56;;;;;;;16.73;3.78;;;22.60;83.40;;;;;;4973660;28;20505;-67
2021/08/04 04:02:00;;;;;;;13.32;4.05;;;22.60;83.60;;;;;;4973547;28;20057;-68
2021/08/04 04:05:07;;;;;;;12.32;4.00;;;22.50;83.70;;;;;;4961594;28;20046;-68
2021/08/04 04:08:11;;;;;;;17.70;3.88;;;22.60;83.60;;;;;;4973681;28;20045;-68
2021/08/04 04:11:16;;;;;;;16.88;4.75;;;22.60;83.70;;;;;;4973348;28;20046;-68
2021/08/04 04:14:20;;;;;;;11.30;4.43;;;22.70;83.60;;;;;;4973837;28;20058;-68
2021/08/04 04:17:24;;;;;;;12.23;4.53;;;22.70;83.10;;;;;;4973443;28;20049;-68
2021/08/04 04:20:30;;;;;;;18.88;4.45;;;22.80;81.70;;;;;;4973474;28;20046;-68
2021/08/04 04:23:34;;;;;;;15.10;4.00;;;22.80;81.10;;;;;;4973216;28;20054;-69
2021/08/04 04:26:38;;;;;;;91.38;9.55;;;22.90;81.30;;;;;;4973514;28;20045;-68
2021/08/04 04:29:41;;;;;;;270.23;16.02;;;22.90;80.90;;;;;;4973702;28;20053;-67
2021/08/04 04:32:46;;;;;;;88.00;7.88;;;22.90;80.50;;;;;;4973809;28;20042;-67
2021/08/04 04:35:50;;;;;;;26.45;5.60;;;22.90;80.70;;;;;;4973312;28;20062;-67
2021/08/04 04:38:54;;;;;;;38.83;6.15;;;23.00;80.60;;;;;;4961770;28;20042;-69
2021/08/04 04:41:58;;;;;;;38.92;7.43;;;23.10;81.10;;;;;;4961011;28;20057;-67
2021/08/04 04:45:02;;;;;;;43.22;7.32;;;23.10;81.00;;;;;;4973087;28;20050;-68
2021/08/04 04:48:07;;;;;;;27.48;7.22;;;23.20;81.40;;;;;;4961428;28;20073;-69
2021/08/04 04:51:12;;;;;;;18.55;4.30;;;23.40;81.40;;;;;;4972543;28;20498;-70
2021/08/04 04:54:15;;;;;;;18.17;4.85;;;23.50;80.30;;;;;;4960683;28;20054;-70
2021/08/04 04:57:19;;;;;;;27.23;5.28;;;23.70;80.20;;;;;;4972580;28;20049;-68
2021/08/04 05:00:23;;;;;;;16.08;4.30;;;23.90;79.90;;;;;;4972870;28;20046;-68
2021/08/04 05:03:28;;;;;;;26.17;5.18;;;24.00;79.50;;;;;;4972596;28;20057;-68
2021/08/04 05:06:32;;;;;;;17.98;4.43;;;24.30;79.30;;;;;;4972705;28;20394;-68
2021/08/04 05:09:37;;;;;;;20.92;4.85;;;24.80;77.90;;;;;;4973094;28;20502;-66
2021/08/04 05:12:42;;;;;;;23.27;4.22;;;25.20;75.50;;;;;;4972992;28;20062;-69
2021/08/04 05:15:45;;;;;;;18.10;4.30;;;25.40;75.70;;;;;;4973064;28;20406;-68
2021/08/04 05:18:49;;;;;;;14.40;4.25;;;25.80;74.50;;;;;;4972730;28;20041;-67
2021/08/04 05:21:53;;;;;;;23.60;5.20;;;26.00;74.10;;;;;;4973204;28;20050;-66
2021/08/04 05:24:57;;;;;;;17.80;4.63;;;26.20;73.80;;;;;;4972944;28;20049;-67
2021/08/04 05:28:02;;;;;;;12.75;4.15;;;26.20;73.50;;;;;;4973519;28;20058;-72
2021/08/04 05:31:06;;;;;;;25.42;5.03;;;26.20;73.20;;;;;;4973273;28;20054;-73
2021/08/04 05:34:10;;;;;;;20.95;4.88;;;26.20;74.00;;;;;;4972906;28;20046;-73
2021/08/04 05:37:16;;;;;;;21.27;4.53;;;26.20;74.20;;;;;;4974063;28;20410;-72
2021/08/04 05:40:20;;;;;;;21.98;4.90;;;26.20;74.50;;;;;;4973668;28;20050;-72
2021/08/04 05:43:24;;;;;;;16.45;5.13;;;26.20;74.90;;;;;;4973188;28;20058;-72
2021/08/04 05:46:28;;;;;;;16.35;4.90;;;26.30;74.10;;;;;;4972866;28;20062;-72
2021/08/04 05:49:32;;;;;;;17.88;5.03;;;26.50;72.70;;;;;;4973414;28;20062;-76
2021/08/04 05:52:39;;;;;;;17.65;5.45;;;26.70;69.30;;;;;;4972558;28;20054;-77
2021/08/04 05:55:43;;;;;;;26.42;5.35;;;26.90;70.30;;;;;;4972864;28;20058;-74
2021/08/04 05:58:47;;;;;;;21.40;6.60;;;27.00;70.90;;;;;;4973727;28;20042;-75
2021/08/04 06:01:51;;;;;;;24.42;6.35;;;26.80;70.70;;;;;;4961501;28;20054;-75
2021/08/04 06:04:54;;;;;;;23.17;7.22;;;26.60;71.70;;;;;;4973147;28;20053;-76
2021/08/04 06:07:59;;;;;;;21.40;5.80;;;26.60;72.00;;;;;;4974327;28;20050;-75
2021/08/04 06:11:03;;;;;;;21.52;6.03;;;26.60;71.10;;;;;;4977692;28;20046;-75
2021/08/04 06:14:07;;;;;;;18.92;5.70;;;26.80;70.00;;;;;;4977171;28;20537;-75
2021/08/04 06:17:11;;;;;;;16.95;5.28;;;26.90;70.90;;;;;;4976884;28;20150;-76
2021/08/04 06:20:15;;;;;;;16.33;4.93;;;27.00;69.60;;;;;;4976627;28;20495;-69
2021/08/04 06:23:19;;;;;;;24.23;5.72;;;27.10;68.30;;;;;;4976969;28;20069;-68
2021/08/04 06:26:23;;;;;;;18.10;6.10;;;27.30;68.30;;;;;;4975918;28;20390;-70
2021/08/04 06:29:27;;;;;;;22.10;5.65;;;27.60;66.90;;;;;;4975921;28;20054;-69
2021/08/04 06:32:32;;;;;;;26.20;5.60;;;27.70;67.00;;;;;;4975840;28;20050;-69
2021/08/04 06:35:36;;;;;;;17.42;5.25;;;28.00;66.70;;;;;;4976095;28;20518;-72
2021/08/04 06:38:40;;;;;;;23.85;6.25;;;28.40;65.80;;;;;;4975316;28;20383;-69
2021/08/04 06:41:44;;;;;;;25.83;6.10;;;28.60;65.10;;;;;;4976507;28;20045;-73
2021/08/04 06:44:48;;;;;;;30.75;9.80;;;28.90;64.50;;;;;;4976755;28;20605;-72
2021/08/04 06:47:52;;;;;;;29.90;8.93;;;29.00;64.30;;;;;;4976558;28;20046;-71
2021/08/04 06:50:56;;;;;;;34.60;10.07;;;29.00;62.00;;;;;;4976263;28;20050;-71
2021/08/04 06:54:00;;;;;;;36.80;9.95;;;29.20;62.70;;;;;;4976167;28;20050;-72
2021/08/04 06:57:04;;;;;;;37.45;8.40;;;29.40;62.10;;;;;;4976674;28;20115;-73
2021/08/04 07:00:08;;;;;;;28.35;7.82;;;29.50;60.80;;;;;;4974184;28;20634;-70
2021/08/04 07:03:13;;;;;;;35.22;7.85;;;29.60;59.60;;;;;;4975183;28;20064;-69
2021/08/04 07:06:17;;;;;;;34.45;8.00;;;29.70;59.80;;;;;;4975727;28;20509;-72
2021/08/04 07:09:21;;;;;;;35.80;8.23;;;29.90;59.40;;;;;;4975976;28;20066;-71
2021/08/04 07:12:26;;;;;;;28.00;8.15;;;30.00;59.60;;;;;;4975141;28;20111;-71
2021/08/04 07:15:30;;;;;;;30.38;7.70;;;30.10;59.50;;;;;;4975713;28;20529;-69
2021/08/04 07:18:37;;;;;;;30.35;9.57;;;30.20;59.50;;;;;;4975575;28;20046;-72
2021/08/04 07:21:42;;;;;;;30.70;7.75;;;30.30;59.40;;;;;;4974352;28;20042;-70
2021/08/04 07:24:49;;;;;;;37.30;9.10;;;30.50;59.20;;;;;;4976008;28;20054;-69
2021/08/04 07:27:56;;;;;;;34.55;8.13;;;30.60;58.90;;;;;;4974769;28;20065;-69
2021/08/04 07:31:00;;;;;;;33.42;8.32;;;30.70;58.70;;;;;;4975379;28;20061;-70
2021/08/04 07:34:04;;;;;;;32.47;8.65;;;30.80;58.50;;;;;;4974729;28;20394;-70
2021/08/04 07:37:08;;;;;;;30.30;7.97;;;30.80;58.40;;;;;;4975487;28;20050;-72
2021/08/04 07:40:13;;;;;;;26.98;7.63;;;30.90;58.10;;;;;;4974856;28;20514;-69
2021/08/04 07:43:17;;;;;;;32.95;8.65;;;31.00;57.60;;;;;;4976866;28;20046;-71
2021/08/04 07:46:22;;;;;;;27.40;8.63;;;31.10;57.20;;;;;;4976207;28;20042;-71
2021/08/04 07:49:26;;;;;;;33.20;8.60;;;31.20;56.90;;;;;;4975217;28;20045;-71
2021/08/04 07:52:36;;;;;;;30.17;8.35;;;31.30;56.20;;;;;;4975671;28;20046;-77
2021/08/04 07:55:41;;;;;;;31.13;7.60;;;31.40;57.00;;;;;;4975879;28;20502;-72
2021/08/04 07:59:01;;;;;;;38.58;7.78;;;31.60;55.50;;;;;;4976911;28;20046;-76
2021/08/04 08:02:06;;;;;;;23.47;6.70;;;31.60;55.40;;;;;;4976601;28;20050;-74
2021/08/04 08:05:10;;;;;;;33.80;7.15;;;31.80;55.20;;;;;;4976228;28;20049;-75
2021/08/04 08:08:15;;;;;;;22.38;6.47;;;32.00;54.60;;;;;;4976351;28;20095;-85
2021/08/04 08:11:29;;;;;;;24.13;5.97;;;32.10;54.30;;;;;;4975825;28;20600;-73
2021/08/04 08:14:35;;;;;;;27.52;6.72;;;32.20;54.10;;;;;;4964364;28;20058;-71
2021/08/04 08:17:40;;;;;;;23.45;5.32;;;32.30;53.30;;;;;;4974952;28;20414;-73
2021/08/04 08:20:43;;;;;;;17.77;5.30;;;32.40;52.40;;;;;;4974103;28;20120;-69
2021/08/04 08:23:47;;;;;;;31.30;6.90;;;32.40;53.30;;;;;;4975285;28;20048;-80
2021/08/04 08:26:51;;;;;;;38.58;6.85;;;32.50;53.30;;;;;;4978418;28;20041;-77
2021/08/04 08:29:55;;;;;;;27.90;5.88;;;32.60;52.40;;;;;;4976367;28;20058;-75
2021/08/04 08:32:59;;;;;;;23.40;6.25;;;32.60;52.10;;;;;;4975780;28;20046;-73
2021/08/04 08:36:04;;;;;;;16.33;5.53;;;32.70;53.00;;;;;;4976703;28;20054;-76
2021/08/04 08:39:09;;;;;;;29.67;6.57;;;32.70;52.40;;;;;;4980501;28;20050;-69
2021/08/04 08:42:18;;;;;;;20.65;5.50;;;32.80;52.20;;;;;;4961978;28;20045;-70
2021/08/04 08:45:22;;;;;;;16.23;5.55;;;32.90;51.70;;;;;;4974697;28;20042;-73
2021/08/04 08:48:27;;;;;;;20.33;5.30;;;33.00;51.10;;;;;;4979074;28;20053;-76
2021/08/04 08:51:32;;;;;;;23.05;6.20;;;33.10;51.00;;;;;;4976002;28;20065;-74
2021/08/04 08:54:37;;;;;;;19.40;6.03;;;33.10;50.00;;;;;;4976183;28;20505;-77
2021/08/04 08:57:41;;;;;;;18.23;5.82;;;33.10;50.60;;;;;;4976555;28;20058;-76
2021/08/04 09:00:45;;;;;;;15.63;5.55;;;33.00;49.40;;;;;;4973538;28;20053;-76
2021/08/04 09:03:49;;;;;;;21.25;5.68;;;32.90;49.90;;;;;;4962431;28;20046;-76
2021/08/04 09:06:57;;;;;;;21.23;5.88;;;32.70;50.10;;;;;;4962391;28;20057;-72
2021/08/04 09:10:19;;;;;;;20.25;5.18;;;32.70;50.40;;;;;;4973509;28;20394;-72
2021/08/04 09:13:32;;;;;;;19.45;5.75;;;32.60;50.50;;;;;;4974076;28;20513;-74
2021/08/04 09:16:39;;;;;;;14.13;4.45;;;32.50;49.30;;;;;;4961961;28;20049;-71
2021/08/04 09:19:47;;;;;;;13.50;4.35;;;32.60;49.60;;;;;;4973767;28;20418;-73
2021/08/04 09:22:59;;;;;;;24.70;4.68;;;32.50;50.30;;;;;;4973316;28;20402;-75
2021/08/04 09:26:20;;;;;;;17.73;5.45;;;32.50;49.00;;;;;;4972919;28;20062;-72
2021/08/04 09:29:24;;;;;;;19.73;4.20;;;32.50;49.10;;;;;;4974381;28;20402;-72
2021/08/04 09:32:31;;;;;;;15.88;5.03;;;32.50;46.50;;;;;;4974459;28;20595;-72
2021/08/04 09:35:41;;;;;;;16.73;4.55;;;32.60;45.40;;;;;;4973579;28;20062;-73
2021/08/04 09:39:07;;;;;;;19.55;4.88;;;32.70;45.80;;;;;;4972508;28;20390;-71
2021/08/04 09:42:13;;;;;;;18.85;4.35;;;32.80;45.20;;;;;;4974794;28;20046;-78
2021/08/04 09:45:25;;;;;;;25.88;5.18;;;32.90;45.30;;;;;;4979108;28;20046;-80
2021/08/04 09:48:29;;;;;;;12.77;4.45;;;33.10;45.10;;;;;;4978575;28;20057;-78
2021/08/04 09:51:33;;;;;;;18.70;5.05;;;33.20;44.90;;;;;;4980139;28;20058;-73
2021/08/04 09:54:43;;;;;;;14.70;5.60;;;33.30;44.10;;;;;;4965729;28;20359;-70
2021/08/04 09:57:50;;;;;;;15.25;4.70;;;33.40;44.20;;;;;;4977259;28;20070;-70
2021/08/04 10:00:54;;;;;;;13.88;4.53;;;33.50;44.80;;;;;;4977998;28;20042;-71
2021/08/04 10:04:04;;;;;;;19.02;4.85;;;33.60;45.20;;;;;;4978058;28;20062;-72
2021/08/04 10:07:11;;;;;;;15.90;4.80;;;33.70;43.80;;;;;;4979005;28;20058;-73
2021/08/04 10:10:18;;;;;;;19.77;5.47;;;33.80;43.50;;;;;;4978434;28;20050;-76
2021/08/04 10:13:28;;;;;;;16.55;4.53;;;33.90;43.60;;;;;;4977900;28;20041;-73
2021/08/04 10:16:36;;;;;;;16.88;5.00;;;33.90;43.70;;;;;;4978054;28;20073;-73
2021/08/04 10:19:45;;;;;;;20.02;5.25;;;34.00;43.90;;;;;;4977714;28;20054;-75
2021/08/04 10:22:51;;;;;;;15.80;5.07;;;34.10;43.30;;;;;;4978275;28;20525;-74
2021/08/04 10:25:57;;;;;;;11.52;4.38;;;34.20;43.70;;;;;;4979052;28;20049;-68
2021/08/04 10:29:06;;;;;;;21.45;4.90;;;34.20;43.60;;;;;;4976248;28;20046;-69
2021/08/04 10:32:10;;;;;;;19.65;5.50;;;34.20;43.60;;;;;;4977788;28;20054;-74
2021/08/04 10:35:16;;;;;;;18.77;5.18;;;34.30;43.00;;;;;;4976365;28;20046;-72
2021/08/04 10:38:26;;;;;;;17.98;4.90;;;34.40;44.00;;;;;;4977531;28;20126;-72
2021/08/04 10:41:30;;;;;;;20.92;5.25;;;34.40;43.80;;;;;;4977460;28;20046;-72
2021/08/04 10:44:36;;;;;;;15.40;5.38;;;34.40;44.60;;;;;;4977715;28;20049;-71
2021/08/04 10:47:42;;;;;;;16.10;4.57;;;34.40;44.90;;;;;;4977010;28;20054;-73
2021/08/04 10:51:12;;;;;;;19.15;4.63;;;34.50;43.40;;;;;;4976430;28;20046;-72
2021/08/04 10:54:17;;;;;;;16.52;4.55;;;34.40;44.00;;;;;;4974140;28;20054;-73
2021/08/04 10:57:21;;;;;;;24.75;5.05;;;34.40;42.80;;;;;;4975406;28;20536;-75
2021/08/04 11:00:25;;;;;;;16.90;4.38;;;34.40;43.10;;;;;;4976260;28;20045;-68
2021/08/04 11:03:41;;;;;;;11.50;4.10;;;34.30;42.20;;;;;;4976715;28;20058;-72
2021/08/04 11:07:07;;;;;;;21.15;4.70;;;34.30;40.70;;;;;;4974924;28;20050;-73
2021/08/04 11:10:15;;;;;;;18.35;4.07;;;34.30;40.30;;;;;;4975830;28;20110;-73
2021/08/04 11:13:54;;;;;;;25.48;4.97;;;34.30;39.00;;;;;;4975688;28;20050;-72
2021/08/04 11:16:59;;;;;;;18.05;4.15;;;34.30;39.30;;;;;;4976962;28;20058;-71
2021/08/04 11:20:11;;;;;;;17.38;4.40;;;34.30;38.70;;;;;;4965241;28;20049;-71
2021/08/04 11:23:43;;;;;;;19.50;5.18;;;34.40;39.60;;;;;;4976227;28;20050;-73
2021/08/04 11:27:04;;;;;;;18.45;5.57;;;34.50;39.50;;;;;;4975924;28;20390;-71
2021/08/04 11:30:12;;;;;;;23.42;4.95;;;34.50;37.80;;;;;;4973331;28;20045;-72
2021/08/04 11:33:19;;;;;;;24.55;4.68;;;34.60;37.30;;;;;;4976664;28;20045;-70
2021/08/04 11:36:28;;;;;;;27.95;4.95;;;35.80;37.00;;;;;;4976394;28;20062;-73
2021/08/04 11:39:33;;;;;;;24.40;4.70;;;37.20;36.70;;;;;;4975934;28;20426;-73
2021/08/04 11:42:37;;;;;;;29.77;4.72;;;38.60;36.20;;;;;;4976530;28;20045;-73
2021/08/04 11:45:44;;;;;;;17.10;4.20;;;39.00;35.90;;;;;;4975030;28;20050;-71
2021/08/04 11:48:53;;;;;;;13.52;3.63;;;38.60;37.00;;;;;;4975478;28;20599;-73
2021/08/04 11:52:22;;;;;;;25.42;5.13;;;37.80;37.70;;;;;;4975949;28;20053;-71
2021/08/04 11:55:25;;;;;;;28.52;5.60;;;37.10;37.80;;;;;;4975533;28;20501;-73
2021/08/04 11:58:30;;;;;;;16.10;3.75;;;36.60;37.50;;;;;;4975881;28;20073;-71
2021/08/04 12:01:34;;;;;;;17.15;4.53;;;36.30;38.70;;;;;;4975958;28;20042;-71
2021/08/04 12:04:47;;;;;;;14.88;4.05;;;36.00;40.00;;;;;;4963751;28;20049;-72
2021/08/04 12:07:51;;;;;;;18.65;4.45;;;35.80;40.90;;;;;;4975265;28;20110;-70
2021/08/04 12:10:56;;;;;;;20.35;4.30;;;35.60;40.00;;;;;;4975341;28;20038;-71
2021/08/04 12:14:06;;;;;;;16.77;4.75;;;36.00;40.70;;;;;;4973841;28;20462;-73
2021/08/04 12:17:10;;;;;;;25.30;4.82;;;37.50;40.00;;;;;;4973685;28;20062;-70
2021/08/04 12:20:16;;;;;;;25.75;4.70;;;38.60;38.10;;;;;;4973637;28;20533;-70
2021/08/04 12:23:23;;;;;;;25.95;4.25;;;39.10;37.90;;;;;;4973088;28;20045;-71
2021/08/04 12:26:27;;;;;;;17.38;4.15;;;39.30;37.30;;;;;;4973652;28;20057;-72
2021/08/04 12:29:31;;;;;;;27.58;5.25;;;39.50;37.80;;;;;;4973940;28;20046;-71
2021/08/04 12:33:16;;;;;;;21.77;4.35;;;39.40;39.10;;;;;;4974381;28;20042;-71
2021/08/04 12:39:31;;;;;;;20.95;4.00;;;39.70;39.00;;;;;;4975594;28;20057;-73
2021/08/04 12:42:36;;;;;;;;;;;39.60;38.70;;;;;;4964760;28;20042;-76
2021/08/04 12:45:50;;;;;;;24.45;5.47;;;39.90;37.30;;;;;;4952613;28;19922;-72
2021/08/04 12:48:56;;;;;;;23.63;4.07;;;39.80;37.30;;;;;;4973483;28;20045;-71
2021/08/04 12:52:02;;;;;;;35.53;5.07;;;39.50;39.90;;;;;;4974163;28;20050;-74
2021/08/04 12:55:18;;;;;;;37.85;5.05;;;39.30;35.00;;;;;;4978858;28;20050;-71
2021/08/04 12:58:22;;;;;;;31.30;4.97;;;39.10;34.70;;;;;;4974154;28;20058;-68
2021/08/04 13:01:36;;;;;;;32.40;5.65;;;38.80;34.60;;;;;;4975170;28;20057;-73
2021/08/04 13:04:42;;;;;;;48.55;6.35;;;38.70;34.90;;;;;;4975406;28;20049;-75
2021/08/04 13:07:46;;;;;;;45.10;6.47;;;38.60;35.30;;;;;;4974730;28;20042;-68
2021/08/04 13:10:50;;;;;;;24.88;5.68;;;38.50;35.30;;;;;;4962265;28;20048;-69
2021/08/04 13:14:02;;;;;;;32.90;5.35;;;37.90;35.70;;;;;;4973863;28;20045;-70
2021/08/04 13:17:21;;;;;;;27.92;5.03;;;37.50;36.00;;;;;;4973937;28;20065;-71
2021/08/04 13:20:25;;;;;;;44.88;6.90;;;37.00;36.70;;;;;;4961757;28;20403;-70
2021/08/04 13:23:35;;;;;;;29.75;5.35;;;36.70;37.10;;;;;;4975145;28;20049;-71
2021/08/04 13:26:42;;;;;;;50.03;5.88;;;36.30;38.00;;;;;;4974857;28;20050;-74
2021/08/04 13:29:46;;;;;;;35.17;7.22;;;36.50;38.00;;;;;;4975183;28;20049;-71
2021/08/04 13:32:50;;;;;;;27.83;5.47;;;36.70;37.60;;;;;;4961326;28;20042;-71
2021/08/04 13:36:05;;;;;;;23.00;4.93;;;37.40;37.20;;;;;;4974057;28;20062;-69
2021/08/04 13:39:09;;;;;;;33.13;5.45;;;37.50;36.80;;;;;;4973188;28;20042;-71
2021/08/04 13:42:13;;;;;;;32.03;5.25;;;37.70;36.50;;;;;;4972916;28;20509;-73
2021/08/04 13:45:19;;;;;;;43.25;5.43;;;37.70;36.40;;;;;;4976676;28;20065;-74
2021/08/04 13:48:25;;;;;;;30.27;5.07;;;37.70;37.00;;;;;;4973119;28;20046;-77
2021/08/04 13:51:30;;;;;;;46.38;7.05;;;37.80;36.80;;;;;;4972908;28;20058;-73
2021/08/04 13:54:34;;;;;;;29.42;5.43;;;37.80;37.60;;;;;;4972813;28;20054;-72
2021/08/04 13:57:42;;;;;;;38.72;5.40;;;37.80;37.90;;;;;;4975020;28;20058;-75
2021/08/04 14:00:46;;;;;;;38.20;6.30;;;37.50;38.10;;;;;;4977105;28;20042;-74
2021/08/04 14:03:50;;;;;;;43.78;6.43;;;37.30;38.40;;;;;;4973879;28;20066;-68
2021/08/04 14:06:54;;;;;;;31.85;5.90;;;37.40;39.00;;;;;;4973251;28;20046;-73
2021/08/04 14:09:58;;;;;;;27.80;5.22;;;37.50;39.20;;;;;;4980019;28;20046;-80
2021/08/04 14:13:05;;;;;;;30.65;5.47;;;37.60;39.00;;;;;;4978214;28;20050;-79
2021/08/04 14:16:09;;;;;;;25.40;4.85;;;37.90;39.10;;;;;;4975982;28;20138;-82
2021/08/04 14:19:13;;;;;;;23.77;4.85;;;38.00;38.70;;;;;;4976026;28;20038;-77
2021/08/04 14:22:21;;;;;;;29.92;5.00;;;37.90;38.80;;;;;;4977167;28;20399;-75
2021/08/04 14:25:26;;;;;;;29.38;5.13;;;37.80;38.80;;;;;;4976832;28;20053;-77
2021/08/04 14:28:32;;;;;;;19.45;5.00;;;37.70;38.90;;;;;;4975480;28;20130;-72
2021/08/04 14:31:36;;;;;;;26.85;6.30;;;38.00;38.80;;;;;;4990022;28;20053;-73
2021/08/04 14:34:41;;;;;;;30.23;5.75;;;38.20;37.90;;;;;;4978534;28;20498;-74
2021/08/04 14:37:44;;;;;;;24.75;5.18;;;38.10;37.30;;;;;;4978393;28;20054;-75
2021/08/04 14:40:48;;;;;;;30.83;5.30;;;38.40;37.00;;;;;;4977740;28;20058;-74
2021/08/04 14:43:52;;;;;;;21.10;5.03;;;38.60;36.80;;;;;;4986848;28;20505;-72
2021/08/04 14:46:58;;;;;;;28.67;5.28;;;38.60;36.70;;;;;;4978949;28;20502;-84
2021/08/04 14:50:03;;;;;;;35.47;5.40;;;38.30;36.90;;;;;;4978824;28;20061;-76
2021/08/04 14:53:11;;;;;;;28.23;5.13;;;38.10;37.80;;;;;;4991049;28;20046;-77
2021/08/04 14:56:17;;;;;;;23.48;5.32;;;37.90;38.40;;;;;;4978635;28;20054;-73
2021/08/04 14:59:23;;;;;;;23.13;4.88;;;37.70;39.30;;;;;;4988142;28;20057;-74
2021/08/04 15:02:27;;;;;;;36.80;6.28;;;37.80;39.50;;;;;;4978243;28;20046;-79
2021/08/04 15:05:31;;;;;;;25.85;5.40;;;37.70;39.90;;;;;;4976906;28;20049;-74
2021/08/04 15:08:36;;;;;;;26.35;5.60;;;38.00;40.00;;;;;;4976716;28;20045;-73
2021/08/04 15:11:40;;;;;;;27.92;5.70;;;38.20;39.70;;;;;;4976835;28;20042;-76
2021/08/04 15:14:44;;;;;;;24.58;5.72;;;38.00;39.50;;;;;;4978957;28;20041;-77
2021/08/04 15:17:48;;;;;;;26.98;6.30;;;38.10;39.50;;;;;;4977003;28;20054;-70
2021/08/04 15:20:52;;;;;;;26.17;5.60;;;38.30;39.00;;;;;;4975095;28;20399;-68
2021/08/04 15:23:56;;;;;;;33.38;5.80;;;38.30;38.80;;;;;;4976071;28;20045;-73
2021/08/04 15:27:02;;;;;;;25.08;5.95;;;38.10;38.20;;;;;;4976738;28;20123;-75
2021/08/04 15:30:07;;;;;;;29.73;6.00;;;37.80;38.50;;;;;;4977030;28;20042;-75
2021/08/04 15:33:11;;;;;;;28.00;5.50;;;37.90;38.20;;;;;;4971890;28;20126;-88
2021/08/04 15:36:15;;;;;;;24.02;4.68;;;37.90;38.60;;;;;;4975329;28;20046;-74
2021/08/04 15:39:19;;;;;;;24.98;5.40;;;37.90;38.80;;;;;;4974542;28;20049;-73
2021/08/04 15:42:23;;;;;;;29.67;5.03;;;38.20;38.70;;;;;;4962383;28;20065;-72
2021/08/04 15:45:27;;;;;;;26.33;5.40;;;38.50;38.90;;;;;;4974834;28;20049;-68
2021/08/04 15:48:32;;;;;;;22.63;5.60;;;38.60;39.70;;;;;;4974900;28;20054;-70
2021/08/04 15:51:41;;;;;;;23.63;4.65;;;38.30;39.90;;;;;;4952597;28;20394;-73
2021/08/04 15:54:45;;;;;;;26.38;5.40;;;38.10;40.70;;;;;;4952305;28;20509;-70
2021/08/04 15:57:49;;;;;;;24.00;4.85;;;37.90;40.60;;;;;;4974959;28;20073;-71
2021/08/04 16:00:53;;;;;;;28.75;5.40;;;37.80;40.70;;;;;;4976767;28;20046;-71
2021/08/04 16:03:58;;;;;;;20.17;4.93;;;37.70;41.60;;;;;;4975982;28;20054;-71